Time;durP1;ratioP1;P1;durP2;ratioP2;P2;SDS_P1;SDS_P2;PMS_P1;PMS_P2;Temp;Humidity;BMP_temperature;BMP_pressure;BME280_temperature;BME280_humidity;BME280_pressure;Samples;Min_cycle;Max_cycle;Signal;HPM_P1;HPM_P2
2023/06/17 00:00:11;;;;;;;;;;;;;;;23.56;61.38;100022.31;7404513;19;1191;-82
2023/06/17 00:02:40;;;;;;;;;;;;;;;23.56;61.33;100016.91;7404559;19;1443;-82
2023/06/17 00:05:11;;;;;;;;;;;;;;;23.49;61.74;100010.56;7404800;19;1348;-82
2023/06/17 00:07:41;;;;;;;;;;;;;;;23.50;61.75;100013.06;7403502;19;1550;-82
2023/06/17 00:10:10;;;;;;;;;;;;;;;23.46;62.00;100011.78;7404200;19;1708;-82
2023/06/17 00:12:38;;;;;;;;;;;;;;;23.50;61.85;100004.16;7404544;19;1656;-83
2023/06/17 00:15:08;;;;;;;;;;;;;;;23.50;61.75;100014.94;7406038;19;1581;-83
2023/06/17 00:17:36;;;;;;;;;;;;;;;23.51;61.95;100016.59;7403601;19;1836;-83
2023/06/17 00:20:11;;;;;;;;;;;;;;;23.47;62.11;99999.09;7404941;19;1525;-83
2023/06/17 00:22:43;;;;;;;;;;;;;;;23.41;62.13;100004.19;7402755;19;1809;-82
2023/06/17 00:25:11;;;;;;;;;;;;;;;23.50;62.05;100004.16;7403859;19;1548;-82
2023/06/17 00:27:39;;;;;;;;;;;;;;;23.51;61.76;100008.50;7401280;19;1497;-82
2023/06/17 00:30:09;;;;;;;;;;;;;;;23.50;61.95;99993.34;7401682;19;1533;-82
2023/06/17 00:32:37;;;;;;;;;;;;;;;23.56;61.80;99996.16;7403979;19;1493;-83
2023/06/17 00:35:06;;;;;;;;;;;;;;;23.63;61.55;100004.34;7404839;19;1839;-83
2023/06/17 00:37:35;;;;;;;;;;;;;;;23.58;62.04;100004.06;7403346;19;1832;-83
2023/06/17 00:40:08;;;;;;;;;;;;;;;23.53;62.05;99991.09;7403181;19;1576;-84
2023/06/17 00:42:36;;;;;;;;;;;;;;;23.55;61.99;99993.63;7403258;19;1673;-84
2023/06/17 00:45:05;;;;;;;;;;;;;;;23.57;62.00;99997.81;7402485;19;1506;-84
2023/06/17 00:47:33;;;;;;;;;;;;;;;23.62;62.04;99994.56;7403689;19;1045;-83
2023/06/17 00:50:02;;;;;;;;;;;;;;;23.66;61.89;100012.06;7402743;19;1557;-83
2023/06/17 00:52:31;;;;;;;;;;;;;;;23.65;61.58;99993.34;7401194;19;1527;-84
2023/06/17 00:54:59;;;;;;;;;;;;;;;23.58;61.90;99999.50;7403038;19;1613;-83
2023/06/17 00:57:31;;;;;;;;;;;;;;;23.64;61.96;100006.03;7404064;19;1841;-83
2023/06/17 01:00:00;;;;;;;;;;;;;;;23.59;61.90;100011.13;7401572;19;1469;-83
2023/06/17 01:02:28;;;;;;;;;;;;;;;23.54;62.19;99992.78;7401838;19;1286;-83
2023/06/17 01:04:57;;;;;;;;;;;;;;;23.58;61.98;100017.56;7400354;19;1387;-83
2023/06/17 01:07:35;;;;;;;;;;;;;;;23.61;61.82;99993.72;7402999;19;1220;-83
2023/06/17 01:10:07;;;;;;;;;;;;;;;23.66;61.75;100000.44;7399981;19;1632;-83
2023/06/17 01:12:38;;;;;;;;;;;;;;;23.65;61.67;99994.19;7407073;19;1412;-83
2023/06/17 01:15:10;;;;;;;;;;;;;;;23.62;61.84;99999.97;7407966;19;1480;-82
2023/06/17 01:17:39;;;;;;;;;;;;;;;23.63;61.80;100007.03;7408969;19;1838;-83
2023/06/17 01:20:08;;;;;;;;;;;;;;;23.66;61.89;100016.63;7405147;19;1510;-83
2023/06/17 01:22:37;;;;;;;;;;;;;;;23.64;61.96;100019.53;7406000;19;1275;-83
2023/06/17 01:25:09;;;;;;;;;;;;;;;23.68;61.90;100020.00;7414936;19;1581;-83
2023/06/17 01:27:37;;;;;;;;;;;;;;;23.61;62.08;100019.88;7409231;19;1398;-83
2023/06/17 01:30:06;;;;;;;;;;;;;;;23.65;61.82;100014.94;7413231;19;1466;-82
2023/06/17 01:32:34;;;;;;;;;;;;;;;23.63;61.95;100023.22;7407132;19;1370;-83
2023/06/17 01:35:05;;;;;;;;;;;;;;;23.61;62.11;100027.97;7402192;19;1632;-83
2023/06/17 01:37:37;;;;;;;;;;;;;;;23.61;62.23;100025.28;7400059;19;1838;-83
2023/06/17 01:40:11;;;;;;;;;;;;;;;23.61;62.14;100025.28;7399415;19;1397;-83
2023/06/17 01:42:41;;;;;;;;;;;;;;;23.63;62.21;100029.47;7401092;19;1605;-82
2023/06/17 01:45:10;;;;;;;;;;;;;;;23.60;62.10;100004.72;7399575;19;1545;-83
2023/06/17 01:47:39;;;;;;;;;;;;;;;23.56;62.43;100016.91;7403471;19;1046;-82
2023/06/17 01:50:08;;;;;;;;;;;;;;;23.62;62.20;100018.88;7401213;19;1631;-83
2023/06/17 01:52:36;;;;;;;;;;;;;;;23.64;62.24;100006.03;7403465;19;1520;-83
2023/06/17 01:55:05;;;;;;;;;;;;;;;23.57;62.19;100002.38;7401733;19;1623;-83
2023/06/17 01:57:36;;;;;;;;;;;;;;;23.55;62.14;99999.84;7399659;19;1861;-83
2023/06/17 02:00:05;;;;;;;;;;;;;;;23.63;62.30;100007.03;7398793;19;1382;-83
2023/06/17 02:02:33;;;;;;;;;;;;;;;23.65;62.08;100021.19;7398935;19;1472;-83
2023/06/17 02:05:02;;;;;;;;;;;;;;;23.64;62.17;100011.41;7399900;19;1668;-83
2023/06/17 02:07:30;;;;;;;;;;;;;;;23.63;62.30;100017.81;7400877;19;1275;-83
2023/06/17 02:09:59;;;;;;;;;;;;;;;23.58;62.14;100015.69;7398974;19;1529;-83
2023/06/17 02:12:27;;;;;;;;;;;;;;;23.58;62.27;100014.84;7398211;19;1477;-83
2023/06/17 02:14:58;;;;;;;;;;;;;;;23.60;62.38;100016.34;7398306;19;1556;-83
2023/06/17 02:17:27;;;;;;;;;;;;;;;23.53;62.27;100001.91;7398431;19;1460;-83
2023/06/17 02:19:55;;;;;;;;;;;;;;;23.53;62.57;100009.16;7398853;19;1829;-83
2023/06/17 02:22:24;;;;;;;;;;;;;;;23.55;62.59;100009.81;7399911;19;1401;-83
2023/06/17 02:24:52;;;;;;;;;;;;;;;23.57;62.44;100005.06;7399201;19;1377;-84
2023/06/17 02:27:20;;;;;;;;;;;;;;;23.53;62.67;100012.69;7398064;19;1381;-84
2023/06/17 02:29:49;;;;;;;;;;;;;;;23.59;62.51;100027.31;7398969;19;1391;-84
2023/06/17 02:32:20;;;;;;;;;;;;;;;23.60;62.17;100042.50;7399954;19;1875;-83
2023/06/17 02:34:49;;;;;;;;;;;;;;;23.62;62.50;100048.56;7398527;19;1565;-83
2023/06/17 02:37:18;;;;;;;;;;;;;;;23.62;62.21;100051.25;7400812;19;1498;-84
2023/06/17 02:39:46;;;;;;;;;;;;;;;23.60;62.51;100061.41;7398317;19;1835;-83
2023/06/17 02:42:14;;;;;;;;;;;;;;;23.61;62.41;100054.97;7398672;19;1340;-82
2023/06/17 02:44:42;;;;;;;;;;;;;;;23.55;62.70;100063.78;7400351;19;1290;-83
2023/06/17 02:47:11;;;;;;;;;;;;;;;23.57;62.87;100050.94;7399946;19;1224;-82
2023/06/17 02:49:42;;;;;;;;;;;;;;;23.58;62.41;100061.56;7398542;19;1453;-82
2023/06/17 02:52:10;;;;;;;;;;;;;;;23.58;62.59;100069.66;7398894;19;1201;-82
2023/06/17 02:54:38;;;;;;;;;;;;;;;23.55;62.68;100063.78;7398634;19;1625;-84
2023/06/17 02:57:07;;;;;;;;;;;;;;;23.53;62.90;100071.22;7399113;19;1472;-82
2023/06/17 02:59:37;;;;;;;;;;;;;;;23.56;62.83;100068.19;7399277;19;1824;-82
2023/06/17 03:02:06;;;;;;;;;;;;;;;23.59;62.79;100065.09;7399276;19;1527;-82
2023/06/17 03:04:36;;;;;;;;;;;;;;;23.60;62.60;100056.00;7400060;19;1573;-82
2023/06/17 03:07:07;;;;;;;;;;;;;;;23.56;62.89;100062.78;7400091;19;1650;-82
2023/06/17 03:09:35;;;;;;;;;;;;;;;23.55;62.89;100058.41;7398750;19;1629;-83
2023/06/17 03:12:04;;;;;;;;;;;;;;;23.48;63.14;100046.66;7399205;19;1205;-83
2023/06/17 03:14:33;;;;;;;;;;;;;;;23.50;62.80;100052.72;7399822;19;1647;-83
2023/06/17 03:17:03;;;;;;;;;;;;;;;23.50;62.88;100074.31;7400700;19;1311;-83
2023/06/17 03:19:32;;;;;;;;;;;;;;;23.55;63.03;100051.13;7397684;19;1844;-84
2023/06/17 03:22:00;;;;;;;;;;;;;;;23.55;62.82;100059.22;7400933;19;1582;-83
2023/06/17 03:24:31;;;;;;;;;;;;;;;23.53;62.77;100028.88;7398883;19;1699;-84
2023/06/17 03:27:00;;;;;;;;;;;;;;;23.54;62.96;100038.69;7400333;19;1564;-83
2023/06/17 03:29:29;;;;;;;;;;;;;;;23.47;63.08;100032.31;7399777;19;1624;-83
2023/06/17 03:31:57;;;;;;;;;;;;;;;23.43;63.15;100031.84;7399486;19;1134;-83
2023/06/17 03:34:26;;;;;;;;;;;;;;;23.47;63.02;100034.19;7398326;19;1322;-82
2023/06/17 03:36:56;;;;;;;;;;;;;;;23.44;63.53;100038.09;7396840;19;1564;-82
2023/06/17 03:39:24;;;;;;;;;;;;;;;23.50;63.24;100033.84;7399794;19;1826;-82
2023/06/17 03:41:55;;;;;;;;;;;;;;;23.50;63.33;100033.84;7397242;19;1523;-83
2023/06/17 03:44:24;;;;;;;;;;;;;;;23.53;63.11;100030.75;7398129;19;1513;-84
2023/06/17 03:46:52;;;;;;;;;;;;;;;23.45;63.25;100030.84;7400542;19;1339;-84
2023/06/17 03:49:20;;;;;;;;;;;;;;;23.45;63.33;100047.84;7399914;19;1632;-83
2023/06/17 03:51:49;;;;;;;;;;;;;;;23.44;63.26;100046.19;7400912;19;1334;-83
2023/06/17 03:54:17;;;;;;;;;;;;;;;23.42;63.47;100032.88;7399588;19;1561;-83
2023/06/17 03:56:46;;;;;;;;;;;;;;;23.40;63.48;100043.00;7399388;19;1229;-83
2023/06/17 03:59:17;;;;;;;;;;;;;;;23.36;63.36;100033.59;7396885;19;1918;-83
2023/06/17 04:01:46;;;;;;;;;;;;;;;23.39;63.60;100044.03;7398459;19;1823;-83
2023/06/17 04:04:14;;;;;;;;;;;;;;;23.48;63.28;100027.78;7399678;19;1637;-83
2023/06/17 04:06:42;;;;;;;;;;;;;;;23.51;63.18;100024.69;7401149;19;1469;-82
2023/06/17 04:09:11;;;;;;;;;;;;;;;23.37;63.55;100024.47;7404091;19;1242;-83
2023/06/17 04:11:40;;;;;;;;;;;;;;;23.46;63.44;100019.00;7406088;19;1124;-83
2023/06/17 04:14:08;;;;;;;;;;;;;;;23.38;63.54;100031.56;7407649;19;1854;-82
2023/06/17 04:16:41;;;;;;;;;;;;;;;23.21;64.32;100030.03;7406715;19;1820;-84
2023/06/17 04:19:13;;;;;;;;;;;;;;;22.97;64.57;100025.63;7406714;19;1846;-84
2023/06/17 04:21:41;;;;;;;;;;;;;;;22.72;65.74;100033.88;7408534;19;1339;-84
2023/06/17 04:24:10;;;;;;;;;;;;;;;22.58;66.61;100027.41;7403475;19;1689;-85
2023/06/17 04:26:38;;;;;;;;;;;;;;;22.64;65.86;100031.22;7408478;19;1509;-84
2023/06/17 04:29:08;;;;;;;;;;;;;;;22.77;65.56;100026.09;7407978;19;1106;-84
2023/06/17 04:31:40;;;;;;;;;;;;;;;22.57;66.10;100033.78;7406221;19;1927;-85
2023/06/17 04:34:21;;;;;;;;;;;;;;;22.56;66.11;100032.13;7405284;19;1776;-86
2023/06/17 04:36:56;;;;;;;;;;;;;;;22.61;66.06;100027.03;7401796;19;1915;-84
2023/06/17 04:39:25;;;;;;;;;;;;;;;22.69;65.98;100031.53;7402475;19;1840;-86
2023/06/17 04:41:53;;;;;;;;;;;;;;;22.49;66.77;100041.09;7404265;19;1550;-84
2023/06/17 04:44:22;;;;;;;;;;;;;;;22.83;65.78;100038.03;7401472;19;1482;-85
2023/06/17 04:46:53;;;;;;;;;;;;;;;22.97;64.74;100034.53;7404449;19;1317;-85
2023/06/17 04:49:22;;;;;;;;;;;;;;;22.96;64.79;100030.19;7401958;19;1548;-85
2023/06/17 04:51:52;;;;;;;;;;;;;;;22.90;65.20;100033.59;7404787;19;1573;-86
2023/06/17 04:54:25;;;;;;;;;;;;;;;23.02;65.01;100026.81;7404045;19;1207;-86
2023/06/17 04:56:54;;;;;;;;;;;;;;;23.35;63.86;100040.00;7405760;19;1066;-87
2023/06/17 04:59:22;;;;;;;;;;;;;;;23.19;64.74;100038.28;7405219;19;2109;-85
2023/06/17 05:01:53;;;;;;;;;;;;;;;23.18;64.62;100047.41;7405125;19;1562;-88
2023/06/17 05:04:21;;;;;;;;;;;;;;;23.22;64.74;100058.69;7404135;19;1439;-88
2023/06/17 05:06:49;;;;;;;;;;;;;;;23.45;63.98;100063.22;7405053;19;1560;-88
2023/06/17 05:09:18;;;;;;;;;;;;;;;23.32;64.38;100059.28;7405662;19;1660;-89
2023/06/17 05:11:47;;;;;;;;;;;;;;;23.47;64.07;100062.00;7407059;19;1403;-89
2023/06/17 05:14:34;;;;;;;;;;;;;;;23.53;64.29;100063.13;7405702;19;1455;-88
2023/06/17 05:17:04;;;;;;;;;;;;;;;23.55;64.43;100075.41;7406968;19;1492;-87
2023/06/17 05:19:33;;;;;;;;;;;;;;;23.36;65.13;100071.38;7405425;19;1867;-90
2023/06/17 05:22:01;;;;;;;;;;;;;;;23.30;65.07;100074.81;7402719;19;1544;-87
2023/06/17 05:24:29;;;;;;;;;;;;;;;23.10;65.65;100081.69;7403204;19;1204;-89
2023/06/17 05:26:58;;;;;;;;;;;;;;;23.13;65.75;100081.34;7406872;19;1467;-89
2023/06/17 05:29:26;;;;;;;;;;;;;;;23.50;64.46;100077.00;7407342;19;1470;-89
2023/06/17 05:31:54;;;;;;;;;;;;;;;23.46;64.69;100081.94;7406592;19;1369;-88
2023/06/17 05:34:25;;;;;;;;;;;;;;;23.29;65.32;100085.78;7404206;19;1758;-89
2023/06/17 05:36:53;;;;;;;;;;;;;;;23.59;64.34;100089.41;7399866;19;1007;-91
2023/06/17 05:39:22;;;;;;;;;;;;;;;23.30;65.54;100095.53;7403175;19;1845;-87
2023/06/17 05:41:50;;;;;;;;;;;;;;;23.24;65.31;100094.41;7402087;19;1491;-88
2023/06/17 05:44:18;;;;;;;;;;;;;;;23.37;64.78;100105.41;7401041;19;1544;-89
2023/06/17 05:46:46;;;;;;;;;;;;;;;23.39;64.59;100097.97;7401317;19;1966;-89
2023/06/17 05:49:21;;;;;;;;;;;;;;;23.52;64.65;100086.59;7403808;19;1823;-86
2023/06/17 05:51:52;;;;;;;;;;;;;;;23.51;64.21;100100.25;7401245;19;1406;-87
2023/06/17 05:54:21;;;;;;;;;;;;;;;23.26;65.10;100086.13;7401395;19;1445;-87
2023/06/17 05:56:50;;;;;;;;;;;;;;;23.46;64.52;100110.75;7402231;19;1253;-85
2023/06/17 05:59:18;;;;;;;;;;;;;;;23.51;64.63;100102.97;7400791;19;1857;-87
2023/06/17 06:01:46;;;;;;;;;;;;;;;23.31;65.10;100122.31;7401633;19;1309;-88
2023/06/17 06:04:14;;;;;;;;;;;;;;;23.45;64.67;100106.38;7401475;19;1596;-90
2023/06/17 06:06:44;;;;;;;;;;;;;;;23.56;64.03;100108.66;7403535;19;1664;-88
2023/06/17 06:09:15;;;;;;;;;;;;;;;23.32;66.29;100113.22;7405120;19;1235;-85
2023/06/17 06:11:43;;;;;;;;;;;;;;;23.20;66.06;100114.66;7402564;19;1229;-87
2023/06/17 06:14:11;;;;;;;;;;;;;;;23.03;65.67;100101.28;7401579;19;1509;-87
2023/06/17 06:16:40;;;;;;;;;;;;;;;23.02;65.58;100105.00;7401067;19;1562;-87
2023/06/17 06:19:08;;;;;;;;;;;;;;;22.91;66.06;100099.97;7399555;19;1842;-87
2023/06/17 06:21:37;;;;;;;;;;;;;;;22.78;66.21;100105.09;7399111;19;1547;-86
2023/06/17 06:24:05;;;;;;;;;;;;;;;22.84;65.86;100094.47;7400126;19;1797;-87
2023/06/17 06:26:36;;;;;;;;;;;;;;;22.82;65.84;100104.59;7402176;19;1094;-88
2023/06/17 06:29:04;;;;;;;;;;;;;;;22.85;65.50;100116.84;7399514;19;1512;-87
2023/06/17 06:31:32;;;;;;;;;;;;;;;22.79;65.60;100113.00;7404004;19;1542;-89
2023/06/17 06:34:01;;;;;;;;;;;;;;;22.66;66.21;100103.81;7399583;19;1584;-89
2023/06/17 06:36:29;;;;;;;;;;;;;;;22.85;65.59;100106.06;7404793;19;1399;-87
2023/06/17 06:39:02;;;;;;;;;;;;;;;22.80;65.83;100116.53;7404182;19;1244;-88
2023/06/17 06:41:44;;;;;;;;;;;;;;;22.84;65.27;100104.41;7404371;19;1848;-88
2023/06/17 06:44:12;;;;;;;;;;;;;;;22.84;65.38;100101.72;7402406;19;1027;-88
2023/06/17 06:46:40;;;;;;;;;;;;;;;22.71;65.77;100115.75;7400315;19;1745;-89
2023/06/17 06:49:08;;;;;;;;;;;;;;;22.66;65.88;100122.69;7402808;19;1473;-87
2023/06/17 06:51:37;;;;;;;;;;;;;;;22.67;66.20;100116.28;7403243;19;1535;-88
2023/06/17 06:54:05;;;;;;;;;;;;;;;22.57;66.22;100103.84;7401062;19;1548;-89
2023/06/17 06:56:33;;;;;;;;;;;;;;;22.63;66.03;100105.84;7401648;19;1331;-89
2023/06/17 06:59:05;;;;;;;;;;;;;;;22.72;65.72;100111.19;7400012;19;1873;-86
2023/06/17 07:01:37;;;;;;;;;;;;;;;22.68;66.28;100115.25;7399403;19;1827;-89
2023/06/17 07:04:05;;;;;;;;;;;;;;;22.74;66.04;100110.03;7399279;19;1377;-89
2023/06/17 07:06:34;;;;;;;;;;;;;;;22.70;66.17;100108.69;7400890;19;1153;-89
2023/06/17 07:09:02;;;;;;;;;;;;;;;22.74;66.65;100104.63;7401842;19;1074;-88
2023/06/17 07:11:30;;;;;;;;;;;;;;;22.76;66.38;100107.13;7400785;19;1623;-89
2023/06/17 07:13:59;;;;;;;;;;;;;;;22.77;66.53;100111.50;7399377;19;1192;-88
2023/06/17 07:16:30;;;;;;;;;;;;;;;22.84;66.12;100099.84;7398774;19;1422;-89
2023/06/17 07:18:58;;;;;;;;;;;;;;;22.87;66.47;100104.03;7399474;19;1511;-89
2023/06/17 07:21:26;;;;;;;;;;;;;;;22.85;66.62;100098.00;7398820;19;1847;-89
2023/06/17 07:23:54;;;;;;;;;;;;;;;22.72;66.81;100106.66;7399127;19;1447;-90
2023/06/17 07:26:23;;;;;;;;;;;;;;;22.62;67.02;100106.88;7399249;19;1378;-90
2023/06/17 07:28:51;;;;;;;;;;;;;;;22.75;66.22;100100.91;7401245;19;1381;-88
2023/06/17 07:31:20;;;;;;;;;;;;;;;22.85;66.76;100098.00;7397732;19;1405;-84
2023/06/17 07:33:50;;;;;;;;;;;;;;;22.88;65.67;100088.69;7397628;19;1440;-84
2023/06/17 07:36:20;;;;;;;;;;;;;;;22.72;66.06;100092.31;7399381;19;1370;-88
2023/06/17 07:38:48;;;;;;;;;;;;;;;22.95;65.50;100098.59;7398157;19;1494;-88
2023/06/17 07:41:18;;;;;;;;;;;;;;;22.81;67.33;100100.19;7404599;19;1839;-88
2023/06/17 07:43:47;;;;;;;;;;;;;;;22.87;66.55;100098.66;7406359;19;1549;-88
2023/06/17 07:46:15;;;;;;;;;;;;;;;22.86;66.66;100109.59;7405827;19;1478;-88
2023/06/17 07:48:43;;;;;;;;;;;;;;;22.93;66.50;100105.19;7403024;19;1510;-88
2023/06/17 07:51:14;;;;;;;;;;;;;;;23.16;66.48;100114.19;7404616;19;1552;-89
2023/06/17 07:53:42;;;;;;;;;;;;;;;23.38;65.66;100111.69;7405440;19;1345;-89
2023/06/17 07:56:11;;;;;;;;;;;;;;;23.58;65.23;100107.47;7406672;19;1362;-87
2023/06/17 07:58:39;;;;;;;;;;;;;;;23.75;64.46;100097.34;7406953;19;1396;-85
2023/06/17 08:01:07;;;;;;;;;;;;;;;24.15;63.14;100106.09;7407529;19;1854;-85
2023/06/17 08:03:42;;;;;;;;;;;;;;;24.16;64.27;100099.66;7426578;19;1863;-88
2023/06/17 08:06:13;;;;;;;;;;;;;;;24.02;64.49;100097.78;7411414;19;1432;-88
2023/06/17 08:08:45;;;;;;;;;;;;;;;24.06;64.89;100104.50;7407785;19;1638;-88
2023/06/17 08:11:14;;;;;;;;;;;;;;;24.02;65.49;100092.41;7409009;19;1403;-88
2023/06/17 08:13:42;;;;;;;;;;;;;;;24.01;65.20;100093.41;7406216;19;1403;-87
2023/06/17 08:16:10;;;;;;;;;;;;;;;23.93;66.36;100093.50;7411234;19;1494;-84
2023/06/17 08:18:38;;;;;;;;;;;;;;;23.93;65.50;100091.63;7404910;19;1431;-88
2023/06/17 08:21:07;;;;;;;;;;;;;;;24.02;65.42;100089.69;7406245;19;1862;-88
2023/06/17 08:23:35;;;;;;;;;;;;;;;24.13;64.09;100099.19;7411262;19;1525;-88
2023/06/17 08:26:07;;;;;;;;;;;;;;;23.92;65.31;100091.84;7410129;19;1824;-87
2023/06/17 08:28:35;;;;;;;;;;;;;;;23.90;65.45;100096.56;7409968;19;1488;-88
2023/06/17 08:31:03;;;;;;;;;;;;;;;24.11;64.72;100109.34;7408705;19;996;-89
2023/06/17 08:33:32;;;;;;;;;;;;;;;24.15;64.71;100097.13;7406976;19;1641;-89
2023/06/17 08:36:00;;;;;;;;;;;;;;;24.36;63.42;100099.94;7409595;19;1582;-90
2023/06/17 08:38:29;;;;;;;;;;;;;;;24.35;63.79;100102.81;7408993;19;1101;-88
2023/06/17 08:40:57;;;;;;;;;;;;;;;24.26;64.35;100096.69;7404884;19;1859;-89
2023/06/17 08:43:30;;;;;;;;;;;;;;;24.26;64.13;100098.56;7402599;19;1446;-89
2023/06/17 08:46:00;;;;;;;;;;;;;;;24.18;64.34;100103.00;7403583;19;1288;-89
2023/06/17 08:48:28;;;;;;;;;;;;;;;24.05;65.24;100102.81;7403621;19;1525;-87
2023/06/17 08:50:57;;;;;;;;;;;;;;;24.28;64.83;100104.59;7403302;19;1383;-88
2023/06/17 08:53:26;;;;;;;;;;;;;;;24.09;66.00;100105.97;7405048;19;1522;-88
2023/06/17 08:55:54;;;;;;;;;;;;;;;23.69;64.90;100098.06;7402757;19;1554;-90
2023/06/17 08:58:23;;;;;;;;;;;;;;;23.82;65.83;100103.72;7402016;19;1390;-89
2023/06/17 09:00:57;;;;;;;;;;;;;;;23.92;63.60;100103.47;7403026;19;1838;-88
2023/06/17 09:03:26;;;;;;;;;;;;;;;23.91;64.48;100111.75;7399257;19;1231;-88
2023/06/17 09:05:55;;;;;;;;;;;;;;;24.09;64.09;100114.91;7402567;19;1457;-87
2023/06/17 09:08:23;;;;;;;;;;;;;;;23.95;64.70;100113.03;7399711;19;1552;-90
2023/06/17 09:10:51;;;;;;;;;;;;;;;24.12;65.02;100105.63;7399942;19;2121;-90
2023/06/17 09:13:21;;;;;;;;;;;;;;;24.26;64.42;100112.91;7405320;19;1208;-90
2023/06/17 09:15:50;;;;;;;;;;;;;;;24.36;64.20;100110.75;7405141;19;1503;-91
2023/06/17 09:18:23;;;;;;;;;;;;;;;24.16;64.65;100105.06;7403638;19;1723;-88
2023/06/17 09:20:55;;;;;;;;;;;;;;;23.93;65.42;100098.91;7402664;19;1858;-88
2023/06/17 09:23:23;;;;;;;;;;;;;;;23.95;65.34;100110.34;7400724;19;1462;-90
2023/06/17 09:26:01;;;;;;;;;;;;;;;23.72;66.51;100102.28;6883626;19;10000158;-90
2023/06/17 09:28:30;;;;;;;;;;;;;;;23.89;65.61;100101.13;7401032;19;1566;-90
2023/06/17 09:30:59;;;;;;;;;;;;;;;23.89;65.54;100113.78;7400232;19;1516;-90
2023/06/17 09:33:30;;;;;;;;;;;;;;;23.95;65.48;100097.69;7400600;19;1520;-90
2023/06/17 09:36:03;;;;;;;;;;;;;;;23.76;65.82;100099.03;7398450;19;1511;-90
2023/06/17 09:38:32;;;;;;;;;;;;;;;23.74;65.12;100103.78;7397781;19;1499;-91
2023/06/17 09:41:00;;;;;;;;;;;;;;;23.78;64.78;100107.81;7396593;19;1817;-90
2023/06/17 09:43:30;;;;;;;;;;;;;;;24.03;64.16;100104.84;7395898;19;1485;-89
2023/06/17 09:45:59;;;;;;;;;;;;;;;23.91;63.58;100090.97;7396329;19;1357;-89
2023/06/17 09:48:31;;;;;;;;;;;;;;;23.90;63.80;100104.69;7397609;19;1549;-90
2023/06/17 09:51:01;;;;;;;;;;;;;;;23.99;63.54;100100.84;7400931;19;1741;-90
2023/06/17 09:53:30;;;;;;;;;;;;;;;23.95;63.49;100096.84;7404144;19;1560;-90
2023/06/17 09:56:00;;;;;;;;;;;;;;;24.00;63.11;100078.25;7403006;19;1452;-89
2023/06/17 09:58:30;;;;;;;;;;;;;;;23.92;62.88;100089.13;7400198;19;1487;-88
2023/06/17 10:01:00;;;;;;;;;;;;;;;23.94;62.78;100087.91;7400448;19;1853;-88
2023/06/17 10:03:31;;;;;;;;;;;;;;;24.10;62.38;100095.00;7399784;19;1600;-86
2023/06/17 10:06:02;;;;;;;;;;;;;;;24.07;62.58;100094.53;7401768;19;1732;-88
2023/06/17 10:08:35;;;;;;;;;;;;;;;24.20;62.38;100087.47;7403501;19;1690;-87
2023/06/17 10:11:04;;;;;;;;;;;;;;;24.04;62.54;100084.13;7400718;19;1580;-88
2023/06/17 10:13:35;;;;;;;;;;;;;;;23.98;62.59;100081.13;7403399;19;1620;-88
2023/06/17 10:16:05;;;;;;;;;;;;;;;24.05;62.74;100091.19;7403699;19;1703;-87
2023/06/17 10:18:38;;;;;;;;;;;;;;;24.15;63.01;100086.34;7399253;19;1477;-79
2023/06/17 10:21:08;;;;;;;;;;;;;;;24.18;62.67;100070.59;7392283;19;1838;-78
2023/06/17 10:23:37;;;;;;;;;;;;;;;24.24;62.69;100068.19;7389175;19;1535;-79
2023/06/17 10:26:07;;;;;;;;;;;;;;;24.29;62.84;100061.19;7390306;19;2464;-78
2023/06/17 10:28:46;;;;;;;;;;;;;;;24.35;62.86;100075.78;7392649;19;1550;-78
2023/06/17 10:31:27;;;;;;;;;;;;;;;24.32;62.49;100065.38;7392449;19;1541;-78
2023/06/17 10:33:59;;;;;;;;;;;;;;;24.29;62.49;100069.31;7389730;19;1515;-77
2023/06/17 10:36:28;;;;;;;;;;;;;;;24.40;61.67;100062.56;7390483;19;1589;-77
2023/06/17 10:38:58;;;;;;;;;;;;;;;24.35;62.45;100062.28;7389641;19;1547;-77
2023/06/17 10:41:51;;;;;;;;;;;;;;;24.17;62.33;100031.13;7385847;19;1841;-77
2023/06/17 10:44:30;;;;;;;;;;;;;;;24.39;62.49;100066.28;7384574;19;1606;-78
2023/06/17 10:46:59;;;;;;;;;;;;;;;24.35;62.80;100056.88;7388066;19;1490;-76
2023/06/17 10:49:38;;;;;;;;;;;;;;;24.29;62.93;100046.81;7386993;19;1353;-78
2023/06/17 10:52:07;;;;;;;;;;;;;;;24.28;63.37;100064.91;7389444;19;1480;-78
2023/06/17 10:54:36;;;;;;;;;;;;;;;24.30;63.18;100056.63;7387041;19;1442;-79
2023/06/17 10:57:04;;;;;;;;;;;;;;;24.31;63.19;100042.94;7389899;19;1530;-79
2023/06/17 10:59:33;;;;;;;;;;;;;;;24.29;63.08;100057.63;7389915;19;1760;-78
2023/06/17 11:02:03;;;;;;;;;;;;;;;24.27;62.78;100057.81;7385786;19;1862;-78
2023/06/17 11:04:34;;;;;;;;;;;;;;;24.41;62.27;100059.69;7389136;19;1438;-79
2023/06/17 11:07:03;;;;;;;;;;;;;;;24.40;62.09;100067.97;7389611;19;1460;-79
2023/06/17 11:09:32;;;;;;;;;;;;;;;24.36;61.91;100055.88;7391202;19;1484;-80
2023/06/17 11:12:00;;;;;;;;;;;;;;;24.16;62.19;100047.50;7390865;19;1405;-79
2023/06/17 11:14:29;;;;;;;;;;;;;;;24.16;61.85;100067.25;7395306;19;1871;-78
2023/06/17 11:16:57;;;;;;;;;;;;;;;24.19;62.05;100049.81;7398109;19;1448;-79
2023/06/17 11:19:26;;;;;;;;;;;;;;;24.17;61.54;100041.06;7399681;19;1451;-79
2023/06/17 11:22:02;;;;;;;;;;;;;;;24.16;61.46;100042.94;7398341;19;1839;-78
2023/06/17 11:24:30;;;;;;;;;;;;;;;24.04;61.83;100047.13;7394686;19;2236;-79
2023/06/17 11:26:58;;;;;;;;;;;;;;;24.06;62.08;100055.88;7395791;19;1528;-79
2023/06/17 11:29:28;;;;;;;;;;;;;;;24.02;62.17;100049.19;7399176;19;1470;-79
2023/06/17 11:31:56;;;;;;;;;;;;;;;24.07;61.94;100044.03;7398866;19;1442;-79
2023/06/17 11:34:25;;;;;;;;;;;;;;;24.06;61.95;100028.03;7399259;19;1464;-79
2023/06/17 11:36:55;;;;;;;;;;;;;;;24.16;61.54;100032.13;7395388;19;1673;-78
2023/06/17 11:39:27;;;;;;;;;;;;;;;24.31;61.33;100021.31;7399707;19;1423;-78
2023/06/17 11:42:00;;;;;;;;;;;;;;;24.29;61.76;100017.97;7396900;19;1845;-79
2023/06/17 11:44:29;;;;;;;;;;;;;;;24.27;61.72;100011.88;7400484;19;1806;-78
2023/06/17 11:46:58;;;;;;;;;;;;;;;24.26;62.31;100009.41;7403035;19;1663;-79
2023/06/17 11:49:29;;;;;;;;;;;;;;;24.22;62.74;100007.06;7400784;19;1451;-78
2023/06/17 11:52:01;;;;;;;;;;;;;;;24.10;63.13;99999.63;7400800;19;1461;-78
2023/06/17 11:54:32;;;;;;;;;;;;;;;24.16;63.18;99999.72;7400309;19;1568;-78
2023/06/17 11:57:02;;;;;;;;;;;;;;;24.09;63.78;99984.44;7401102;19;1371;-78
2023/06/17 11:59:31;;;;;;;;;;;;;;;24.11;63.16;99990.50;7406273;19;1134;-78
2023/06/17 12:02:00;;;;;;;;;;;;;;;24.14;63.49;99992.81;7400613;19;1834;-77
2023/06/17 12:04:29;;;;;;;;;;;;;;;24.07;63.13;99976.50;7400025;19;1341;-77
2023/06/17 12:06:58;;;;;;;;;;;;;;;23.99;63.33;99990.13;7403103;19;1252;-79
2023/06/17 12:09:26;;;;;;;;;;;;;;;23.95;63.59;99983.44;7401519;19;1560;-78
2023/06/17 12:12:04;;;;;;;;;;;;;;;24.06;63.39;99979.44;7400013;19;1529;-78
2023/06/17 12:14:39;;;;;;;;;;;;;;;24.12;63.02;99990.31;7397347;19;1384;-79
2023/06/17 12:17:09;;;;;;;;;;;;;;;24.06;62.62;99991.06;7400378;19;1271;-79
2023/06/17 12:19:39;;;;;;;;;;;;;;;24.09;62.95;99989.84;7399632;19;1521;-79
2023/06/17 12:22:14;;;;;;;;;;;;;;;24.09;62.36;99985.28;7399107;19;1839;-79
2023/06/17 12:24:42;;;;;;;;;;;;;;;24.11;62.63;99980.50;7395973;19;1568;-78
2023/06/17 12:27:16;;;;;;;;;;;;;;;24.07;62.95;99976.50;7397014;19;1642;-79
2023/06/17 12:29:46;;;;;;;;;;;;;;;24.05;62.25;99988.53;7398375;19;1255;-79
2023/06/17 12:32:15;;;;;;;;;;;;;;;23.94;62.13;99981.75;7396519;19;1387;-78
2023/06/17 12:34:43;;;;;;;;;;;;;;;23.94;61.50;99976.38;7397911;19;1972;-78
2023/06/17 12:37:12;;;;;;;;;;;;;;;23.99;62.32;99958.56;7396856;19;1892;-78
2023/06/17 12:39:41;;;;;;;;;;;;;;;23.99;61.93;99957.72;7397605;19;1632;-78
2023/06/17 12:42:10;;;;;;;;;;;;;;;24.05;61.41;99950.72;7399969;19;1843;-79
2023/06/17 12:44:41;;;;;;;;;;;;;;;23.99;61.58;99952.31;7402007;19;1537;-78
2023/06/17 12:47:10;;;;;;;;;;;;;;;24.14;61.46;99939.63;7399356;19;1887;-80
2023/06/17 12:49:38;;;;;;;;;;;;;;;24.11;60.81;99942.69;7400974;19;1208;-80
2023/06/17 12:52:07;;;;;;;;;;;;;;;24.22;60.23;99939.53;7398434;19;1656;-79
2023/06/17 12:54:35;;;;;;;;;;;;;;;24.34;60.37;99944.44;7400675;19;1486;-79
2023/06/17 12:57:07;;;;;;;;;;;;;;;24.21;60.23;99948.66;7401101;19;1629;-79
2023/06/17 12:59:35;;;;;;;;;;;;;;;24.28;60.48;99935.22;7398552;19;1014;-79